createdAt,value
2017-12-29T00:00:09.202Z,996.35
2017-12-29T00:01:09.204Z,996.32
2017-12-29T00:02:09.224Z,996.29
2017-12-29T00:03:09.225Z,996.32
2017-12-29T00:04:09.248Z,996.31
2017-12-29T00:05:09.262Z,996.33
2017-12-29T00:06:09.267Z,996.36
2017-12-29T00:07:09.281Z,996.29
2017-12-29T00:08:09.298Z,996.38
2017-12-29T00:09:09.306Z,996.37
2017-12-29T00:10:09.314Z,996.36
2017-12-29T00:11:09.326Z,996.34
2017-12-29T00:12:09.353Z,996.38
2017-12-29T00:13:09.352Z,996.44
2017-12-29T00:14:09.358Z,996.48
2017-12-29T00:15:09.371Z,996.43
2017-12-29T00:16:09.388Z,996.54
2017-12-29T00:17:09.397Z,996.50
2017-12-29T00:18:09.417Z,996.51
2017-12-29T00:19:09.414Z,996.53
2017-12-29T00:20:09.446Z,996.55
2017-12-29T00:21:09.455Z,996.52
2017-12-29T00:22:09.453Z,996.53
2017-12-29T00:23:09.466Z,996.51
2017-12-29T00:24:09.472Z,996.54
2017-12-29T00:25:09.498Z,996.57
2017-12-29T00:26:09.506Z,996.54
2017-12-29T00:27:09.513Z,996.50
2017-12-29T00:28:09.523Z,996.55
2017-12-29T00:29:09.545Z,996.51
2017-12-29T00:30:09.562Z,996.51
2017-12-29T00:31:09.562Z,996.52
2017-12-29T00:32:09.575Z,996.52
2017-12-29T00:33:09.577Z,996.50
2017-12-29T00:34:09.603Z,996.46
2017-12-29T00:35:09.620Z,996.59
2017-12-29T00:36:09.626Z,996.58
2017-12-29T00:37:09.635Z,996.54
2017-12-29T00:38:09.646Z,996.51
2017-12-29T00:39:09.658Z,996.54
2017-12-29T00:40:09.664Z,996.48
2017-12-29T00:41:09.673Z,996.55
2017-12-29T00:42:09.694Z,996.55
2017-12-29T00:43:09.702Z,996.58
2017-12-29T00:44:09.723Z,996.58
2017-12-29T00:45:09.725Z,996.56
2017-12-29T00:46:09.728Z,996.61
2017-12-29T00:47:09.755Z,996.66
2017-12-29T00:48:09.760Z,996.68
2017-12-29T00:49:10.068Z,996.62
2017-12-29T00:50:09.780Z,996.64
2017-12-29T00:51:09.787Z,996.69
2017-12-29T00:52:09.819Z,996.66
2017-12-29T00:53:09.827Z,996.69
2017-12-29T00:54:09.827Z,996.70
2017-12-29T00:55:09.839Z,996.69
2017-12-29T00:56:09.852Z,996.70
2017-12-29T00:57:09.865Z,996.70
2017-12-29T00:58:09.877Z,996.73
2017-12-29T00:59:09.890Z,996.78
2017-12-29T01:00:09.901Z,996.77
2017-12-29T01:01:09.911Z,996.78
2017-12-29T01:02:09.928Z,996.77
2017-12-29T01:03:09.935Z,996.77
2017-12-29T01:04:09.946Z,996.81
2017-12-29T01:05:09.947Z,996.78
2017-12-29T01:06:09.967Z,996.78
2017-12-29T01:07:09.985Z,996.82
2017-12-29T01:08:09.991Z,996.82
2017-12-29T01:09:10.001Z,996.88
2017-12-29T01:10:10.005Z,996.80
2017-12-29T01:11:10.029Z,996.78
2017-12-29T01:12:10.024Z,996.87
2017-12-29T01:13:10.045Z,996.91
2017-12-29T01:14:10.058Z,996.91
2017-12-29T01:15:10.068Z,996.91
2017-12-29T01:16:10.082Z,996.93
2017-12-29T01:17:10.085Z,996.93
2017-12-29T01:18:10.100Z,996.97
2017-12-29T01:19:10.117Z,996.98
2017-12-29T01:20:10.119Z,997.02
2017-12-29T01:21:10.134Z,996.94
2017-12-29T01:22:10.141Z,996.97
2017-12-29T01:23:10.165Z,996.96
2017-12-29T01:24:10.177Z,996.99
2017-12-29T01:25:10.187Z,996.99
2017-12-29T01:26:10.184Z,996.94
2017-12-29T01:27:10.197Z,996.93
2017-12-29T01:28:10.210Z,996.98
2017-12-29T01:29:10.224Z,997.03
2017-12-29T01:30:10.244Z,997.07
2017-12-29T01:31:10.248Z,996.96
2017-12-29T01:32:10.262Z,996.94
2017-12-29T01:33:10.282Z,996.96
2017-12-29T01:34:10.269Z,996.91
2017-12-29T01:35:10.294Z,996.98
2017-12-29T01:36:10.298Z,996.96
2017-12-29T01:37:10.315Z,996.95
2017-12-29T01:38:10.320Z,996.89
2017-12-29T01:39:10.332Z,996.94
2017-12-29T01:40:10.358Z,996.94
2017-12-29T01:41:10.366Z,996.94
2017-12-29T01:42:10.371Z,996.93
2017-12-29T01:43:10.378Z,996.91
2017-12-29T01:44:10.391Z,996.90
2017-12-29T01:45:10.391Z,996.96
2017-12-29T01:46:10.406Z,996.95
2017-12-29T01:47:10.425Z,996.93
2017-12-29T01:48:10.430Z,996.88
2017-12-29T01:49:10.439Z,996.94
2017-12-29T01:50:10.452Z,996.96
2017-12-29T01:51:10.467Z,997.02
2017-12-29T01:52:10.488Z,997.03
2017-12-29T01:53:10.492Z,997.05
2017-12-29T01:54:10.503Z,997.07
2017-12-29T01:55:10.509Z,997.07
2017-12-29T01:56:10.513Z,997.06
2017-12-29T01:57:10.524Z,997.09
2017-12-29T01:58:10.536Z,997.10
2017-12-29T01:59:10.554Z,997.11
2017-12-29T02:00:10.568Z,997.15
2017-12-29T02:01:10.581Z,997.19
2017-12-29T02:02:10.580Z,997.17
2017-12-29T02:03:10.599Z,997.19
2017-12-29T02:04:10.597Z,997.15
2017-12-29T02:05:10.614Z,997.10
2017-12-29T02:06:10.633Z,997.19
2017-12-29T02:07:10.636Z,997.20
2017-12-29T02:08:10.655Z,997.17
2017-12-29T02:09:10.671Z,997.21
2017-12-29T02:10:10.663Z,997.25
2017-12-29T02:11:10.678Z,997.26
2017-12-29T02:12:10.705Z,997.34
2017-12-29T02:13:10.702Z,997.31
2017-12-29T02:14:10.966Z,997.32
2017-12-29T02:15:10.719Z,997.40
2017-12-29T02:16:10.735Z,997.38
2017-12-29T02:17:10.749Z,997.39
2017-12-29T02:18:10.778Z,997.41
2017-12-29T02:19:11.079Z,997.41
2017-12-29T02:20:10.792Z,997.40
2017-12-29T02:21:10.786Z,997.35
2017-12-29T02:22:10.800Z,997.42
2017-12-29T02:23:10.804Z,997.43
2017-12-29T02:24:10.836Z,997.38
2017-12-29T02:25:10.839Z,997.41
2017-12-29T02:26:10.843Z,997.47
2017-12-29T02:27:10.865Z,997.50
2017-12-29T02:28:10.860Z,997.53
2017-12-29T02:29:10.871Z,997.54
2017-12-29T02:30:10.890Z,997.58
2017-12-29T02:31:10.900Z,997.57
2017-12-29T02:32:10.914Z,997.59
2017-12-29T02:33:10.922Z,997.58
2017-12-29T02:34:10.933Z,997.63
2017-12-29T02:35:10.941Z,997.63
2017-12-29T02:36:10.958Z,997.63
2017-12-29T02:37:10.966Z,997.65
2017-12-29T02:38:10.979Z,997.63
2017-12-29T02:39:11.292Z,997.67
2017-12-29T02:40:10.997Z,997.70
2017-12-29T02:41:11.014Z,997.74
2017-12-29T02:42:11.022Z,997.73
2017-12-29T02:43:11.036Z,997.79
2017-12-29T02:44:11.053Z,997.79
2017-12-29T02:45:11.049Z,997.76
2017-12-29T02:46:11.063Z,997.79
2017-12-29T02:47:11.086Z,997.83
2017-12-29T02:48:11.098Z,997.79
2017-12-29T02:49:11.116Z,997.83
2017-12-29T02:50:11.107Z,997.79
2017-12-29T02:51:11.119Z,997.83
2017-12-29T02:52:11.137Z,997.87
2017-12-29T02:53:11.146Z,997.86
2017-12-29T02:54:11.168Z,997.87
2017-12-29T02:55:11.163Z,997.93
2017-12-29T02:56:11.179Z,997.89
2017-12-29T02:57:11.207Z,997.87
2017-12-29T02:58:11.203Z,997.88
2017-12-29T02:59:11.228Z,997.95
2017-12-29T03:00:11.227Z,997.93
2017-12-29T03:01:11.230Z,997.97
2017-12-29T03:02:11.262Z,997.95
2017-12-29T03:03:11.259Z,997.97
2017-12-29T03:04:11.282Z,997.92
2017-12-29T03:05:11.289Z,997.87
2017-12-29T03:06:11.299Z,997.91
2017-12-29T03:07:11.319Z,997.93
2017-12-29T03:08:11.322Z,997.93
2017-12-29T03:09:11.632Z,998.02
2017-12-29T03:10:11.351Z,997.99
2017-12-29T03:11:11.362Z,998.06
2017-12-29T03:12:11.375Z,998.03
2017-12-29T03:13:11.384Z,998.07
2017-12-29T03:14:11.383Z,998.08
2017-12-29T03:15:11.409Z,998.10
2017-12-29T03:16:11.422Z,998.07
2017-12-29T03:17:11.428Z,998.03
2017-12-29T03:18:11.435Z,998.07
2017-12-29T03:19:11.759Z,998.06
2017-12-29T03:20:11.465Z,998.05
2017-12-29T03:21:11.473Z,998.04
2017-12-29T03:22:11.485Z,998.10
2017-12-29T03:23:11.494Z,998.09
2017-12-29T03:24:11.511Z,998.06
2017-12-29T03:25:11.537Z,998.14
2017-12-29T03:26:11.531Z,998.08
2017-12-29T03:27:11.543Z,998.13
2017-12-29T03:28:11.560Z,998.14
2017-12-29T03:29:11.570Z,998.13
2017-12-29T03:30:11.575Z,998.14
2017-12-29T03:31:11.589Z,998.24
2017-12-29T03:32:11.594Z,998.25
2017-12-29T03:33:11.615Z,998.27
2017-12-29T03:34:11.635Z,998.26
2017-12-29T03:35:11.632Z,998.20
2017-12-29T03:36:11.644Z,998.25
2017-12-29T03:37:11.656Z,998.29
2017-12-29T03:38:11.678Z,998.24
2017-12-29T03:39:11.691Z,998.23
2017-12-29T03:40:11.689Z,998.26
2017-12-29T03:41:11.705Z,998.24
2017-12-29T03:42:11.730Z,998.19
2017-12-29T03:43:11.728Z,998.27
2017-12-29T03:44:12.048Z,998.26
2017-12-29T03:45:11.755Z,998.31
2017-12-29T03:46:11.755Z,998.31
2017-12-29T03:47:11.780Z,998.29
2017-12-29T03:48:11.784Z,998.29
2017-12-29T03:49:11.794Z,998.28
2017-12-29T03:50:11.810Z,998.32
2017-12-29T03:51:11.820Z,998.33
2017-12-29T03:52:11.838Z,998.37
2017-12-29T03:53:11.846Z,998.37
2017-12-29T03:54:11.853Z,998.35
2017-12-29T03:55:11.866Z,998.37
2017-12-29T03:56:11.897Z,998.38
2017-12-29T03:57:11.901Z,998.39
2017-12-29T03:58:11.899Z,998.38
2017-12-29T03:59:12.212Z,998.43
2017-12-29T04:00:11.918Z,998.41
2017-12-29T04:01:11.951Z,998.40
2017-12-29T04:02:11.951Z,998.37
2017-12-29T04:03:11.963Z,998.42
2017-12-29T04:04:11.975Z,998.43
2017-12-29T04:05:11.990Z,998.46
2017-12-29T04:06:11.994Z,998.46
2017-12-29T04:07:12.008Z,998.49
2017-12-29T04:08:12.013Z,998.49
2017-12-29T04:09:12.029Z,998.51
2017-12-29T04:10:12.059Z,998.43
2017-12-29T04:11:12.051Z,998.45
2017-12-29T04:12:12.073Z,998.48
2017-12-29T04:13:12.081Z,998.49
2017-12-29T04:14:12.078Z,998.53
2017-12-29T04:15:12.097Z,998.54
2017-12-29T04:16:12.097Z,998.50
2017-12-29T04:17:12.117Z,998.55
2017-12-29T04:18:12.136Z,998.58
2017-12-29T04:19:12.142Z,998.53
2017-12-29T04:20:12.161Z,998.59
2017-12-29T04:21:12.164Z,998.58
2017-12-29T04:22:12.162Z,998.55
2017-12-29T04:23:12.194Z,998.58
2017-12-29T04:24:12.499Z,998.61
2017-12-29T04:25:12.201Z,998.62
2017-12-29T04:26:12.215Z,998.63
2017-12-29T04:27:12.219Z,998.67
2017-12-29T04:28:12.231Z,998.65
2017-12-29T04:29:12.252Z,998.63
2017-12-29T04:30:12.258Z,998.62
2017-12-29T04:31:12.271Z,998.68
2017-12-29T04:32:12.282Z,998.66
2017-12-29T04:33:12.286Z,998.68
2017-12-29T04:34:12.299Z,998.68
2017-12-29T04:35:12.309Z,998.67
2017-12-29T04:36:12.317Z,998.66
2017-12-29T04:37:12.344Z,998.65
2017-12-29T04:38:12.342Z,998.71
2017-12-29T04:39:12.655Z,998.67
2017-12-29T04:40:12.360Z,998.70
2017-12-29T04:41:12.376Z,998.71
2017-12-29T04:42:12.382Z,998.73
2017-12-29T04:43:12.386Z,998.67
2017-12-29T04:44:12.419Z,998.74
2017-12-29T04:45:12.423Z,998.76
2017-12-29T04:46:12.431Z,998.77
2017-12-29T04:47:12.439Z,998.77
2017-12-29T04:48:12.450Z,998.75
2017-12-29T04:49:12.459Z,998.72
2017-12-29T04:50:12.472Z,998.71
2017-12-29T04:51:12.471Z,998.79
2017-12-29T04:52:12.503Z,998.80
2017-12-29T04:53:12.504Z,998.78
2017-12-29T04:54:12.509Z,998.82
2017-12-29T04:55:12.523Z,998.87
2017-12-29T04:56:12.533Z,998.86
2017-12-29T04:57:12.536Z,998.93
2017-12-29T04:58:12.549Z,998.93
2017-12-29T04:59:12.560Z,998.95
2017-12-29T05:00:12.585Z,998.95
2017-12-29T05:01:12.596Z,998.95
2017-12-29T05:02:12.592Z,998.97
2017-12-29T05:03:12.612Z,998.96
2017-12-29T05:04:12.617Z,998.99
2017-12-29T05:05:12.620Z,998.94
2017-12-29T05:06:12.632Z,998.96
2017-12-29T05:07:12.650Z,999.00
2017-12-29T05:08:12.670Z,999.02
2017-12-29T05:09:12.678Z,999.00
2017-12-29T05:10:12.684Z,999.03
2017-12-29T05:11:12.695Z,999.05
2017-12-29T05:12:12.695Z,999.10
2017-12-29T05:13:12.703Z,999.08
2017-12-29T05:14:12.729Z,999.06
2017-12-29T05:15:12.733Z,999.10
2017-12-29T05:16:12.746Z,999.07
2017-12-29T05:17:12.756Z,999.12
2017-12-29T05:18:12.772Z,999.11
2017-12-29T05:19:12.773Z,999.10
2017-12-29T05:20:12.792Z,999.10
2017-12-29T05:21:12.806Z,999.08
2017-12-29T05:22:12.818Z,999.07
2017-12-29T05:23:12.817Z,999.10
2017-12-29T05:24:13.136Z,999.09
2017-12-29T05:25:12.845Z,999.14
2017-12-29T05:26:12.844Z,999.18
2017-12-29T05:27:12.870Z,999.21
2017-12-29T05:28:12.873Z,999.21
2017-12-29T05:29:12.890Z,999.19
2017-12-29T05:30:12.896Z,999.17
2017-12-29T05:31:12.905Z,999.16
2017-12-29T05:32:12.920Z,999.14
2017-12-29T05:33:12.923Z,999.17
2017-12-29T05:34:12.929Z,999.17
2017-12-29T05:35:12.954Z,999.17
2017-12-29T05:36:12.958Z,999.14
2017-12-29T05:37:12.966Z,999.17
2017-12-29T05:38:12.979Z,999.21
2017-12-29T05:39:13.337Z,999.15
2017-12-29T05:40:13.007Z,999.14
2017-12-29T05:41:13.024Z,999.13
2017-12-29T05:42:13.024Z,999.18
2017-12-29T05:43:13.037Z,999.12
2017-12-29T05:44:13.048Z,999.12
2017-12-29T05:45:13.050Z,999.16
2017-12-29T05:46:13.063Z,999.20
2017-12-29T05:47:13.068Z,999.17
2017-12-29T05:48:13.104Z,999.22
2017-12-29T05:49:13.110Z,999.20
2017-12-29T05:50:13.114Z,999.21
2017-12-29T05:51:13.126Z,999.16
2017-12-29T05:52:13.132Z,999.19
2017-12-29T05:53:13.137Z,999.18
2017-12-29T05:54:13.160Z,999.20
2017-12-29T05:55:13.164Z,999.22
2017-12-29T05:56:13.184Z,999.23
2017-12-29T05:57:13.194Z,999.25
2017-12-29T05:58:13.198Z,999.23
2017-12-29T05:59:13.504Z,999.21
2017-12-29T06:00:13.210Z,999.24
2017-12-29T06:01:13.233Z,999.26
2017-12-29T06:02:13.243Z,999.26
2017-12-29T06:03:13.252Z,999.29
2017-12-29T06:04:13.264Z,999.24
2017-12-29T06:05:13.272Z,999.27
2017-12-29T06:06:13.285Z,999.21
2017-12-29T06:07:13.295Z,999.22
2017-12-29T06:08:13.308Z,999.23
2017-12-29T06:09:13.324Z,999.23
2017-12-29T06:10:13.321Z,999.24
2017-12-29T06:11:13.354Z,999.18
2017-12-29T06:12:13.340Z,999.27
2017-12-29T06:13:13.351Z,999.22
2017-12-29T06:14:13.374Z,999.24
2017-12-29T06:15:13.386Z,999.25
2017-12-29T06:16:13.393Z,999.29
2017-12-29T06:17:13.401Z,999.23
2017-12-29T06:18:13.405Z,999.29
2017-12-29T06:19:13.420Z,999.30
2017-12-29T06:20:13.436Z,999.27
2017-12-29T06:21:13.455Z,999.29
2017-12-29T06:22:13.458Z,999.20
2017-12-29T06:23:13.469Z,999.28
2017-12-29T06:24:13.783Z,999.27
2017-12-29T06:25:13.492Z,999.26
2017-12-29T06:26:13.511Z,999.22
2017-12-29T06:27:13.516Z,999.30
2017-12-29T06:28:13.520Z,999.31
2017-12-29T06:29:13.535Z,999.25
2017-12-29T06:30:13.543Z,999.26
2017-12-29T06:31:13.548Z,999.30
2017-12-29T06:32:13.579Z,999.30
2017-12-29T06:33:13.587Z,999.29
2017-12-29T06:34:13.585Z,999.32
2017-12-29T06:35:13.598Z,999.38
2017-12-29T06:36:13.603Z,999.33
2017-12-29T06:37:13.614Z,999.37
2017-12-29T06:38:13.638Z,999.37
2017-12-29T06:39:13.655Z,999.36
2017-12-29T06:40:13.655Z,999.46
2017-12-29T06:41:13.664Z,999.46
2017-12-29T06:42:13.670Z,999.47
2017-12-29T06:43:13.695Z,999.47
2017-12-29T06:44:13.700Z,999.44
2017-12-29T06:45:13.716Z,999.49
2017-12-29T06:46:13.722Z,999.44
2017-12-29T06:47:13.733Z,999.48
2017-12-29T06:48:13.759Z,999.48
2017-12-29T06:49:13.767Z,999.55
2017-12-29T06:50:13.766Z,999.53
2017-12-29T06:51:13.779Z,999.60
2017-12-29T06:52:13.784Z,999.56
2017-12-29T06:53:13.799Z,999.63
2017-12-29T06:54:13.823Z,999.59
2017-12-29T06:55:13.830Z,999.59
2017-12-29T06:56:13.847Z,999.62
2017-12-29T06:57:13.844Z,999.56
2017-12-29T06:58:13.849Z,999.58
2017-12-29T06:59:13.882Z,999.61
2017-12-29T07:00:13.880Z,999.63
2017-12-29T07:01:13.907Z,999.64
2017-12-29T07:02:13.908Z,999.64
2017-12-29T07:03:13.906Z,999.61
2017-12-29T07:04:13.926Z,999.65
2017-12-29T07:05:13.941Z,999.69
2017-12-29T07:06:13.944Z,999.68
2017-12-29T07:07:13.964Z,999.68
2017-12-29T07:08:13.963Z,999.73
2017-12-29T07:09:13.972Z,999.72
2017-12-29T07:10:14.004Z,999.72
2017-12-29T07:11:14.001Z,999.74
2017-12-29T07:12:14.022Z,999.71
2017-12-29T07:13:14.025Z,999.78
2017-12-29T07:14:14.036Z,999.76
2017-12-29T07:15:14.043Z,999.79
2017-12-29T07:16:14.059Z,999.80
2017-12-29T07:17:14.068Z,999.78
2017-12-29T07:18:14.101Z,999.84
2017-12-29T07:19:14.385Z,999.81
2017-12-29T07:20:14.106Z,999.84
2017-12-29T07:21:14.127Z,999.84
2017-12-29T07:22:14.125Z,999.86
2017-12-29T07:23:14.144Z,999.86
2017-12-29T07:24:14.148Z,999.84
2017-12-29T07:25:14.157Z,999.87
2017-12-29T07:26:14.177Z,999.84
2017-12-29T07:27:14.182Z,999.83
2017-12-29T07:28:14.194Z,999.81
2017-12-29T07:29:14.203Z,999.80
2017-12-29T07:30:14.211Z,999.81
2017-12-29T07:31:14.225Z,999.83
2017-12-29T07:32:14.239Z,999.81
2017-12-29T07:33:14.248Z,999.82
2017-12-29T07:34:14.309Z,999.83
2017-12-29T07:35:14.264Z,999.83
2017-12-29T07:36:14.279Z,999.81
2017-12-29T07:37:14.306Z,999.86
2017-12-29T07:38:14.311Z,999.86
2017-12-29T07:39:14.317Z,999.87
2017-12-29T07:40:14.328Z,999.89
2017-12-29T07:41:14.338Z,999.92
2017-12-29T07:42:14.346Z,999.93
2017-12-29T07:43:14.362Z,999.94
2017-12-29T07:44:14.381Z,999.92
2017-12-29T07:45:14.384Z,999.91
2017-12-29T07:46:14.389Z,999.90
2017-12-29T07:47:14.401Z,999.98
2017-12-29T07:48:14.425Z,1000.03
2017-12-29T07:49:14.428Z,1000.01
2017-12-29T07:50:14.448Z,1000.00
2017-12-29T07:51:14.446Z,1000.04
2017-12-29T07:52:14.459Z,1000.00
2017-12-29T07:53:14.468Z,1000.06
2017-12-29T07:54:14.493Z,1000.06
2017-12-29T07:55:14.501Z,1000.05
2017-12-29T07:56:14.512Z,1000.00
2017-12-29T07:57:14.516Z,1000.04
2017-12-29T07:58:14.525Z,1000.06
2017-12-29T07:59:14.543Z,1000.06
2017-12-29T08:00:14.555Z,1000.08
2017-12-29T08:01:14.570Z,1000.09
2017-12-29T08:02:14.569Z,1000.13
2017-12-29T08:03:14.591Z,1000.07
2017-12-29T08:04:14.597Z,1000.11
2017-12-29T08:05:14.608Z,1000.11
2017-12-29T08:06:14.621Z,1000.16
2017-12-29T08:07:14.624Z,1000.19
2017-12-29T08:08:14.649Z,1000.18
2017-12-29T08:09:14.660Z,1000.23
2017-12-29T08:10:14.664Z,1000.21
2017-12-29T08:11:14.674Z,1000.25
2017-12-29T08:12:14.687Z,1000.25
2017-12-29T08:13:14.695Z,1000.26
2017-12-29T08:14:14.719Z,1000.32
2017-12-29T08:15:14.725Z,1000.31
2017-12-29T08:16:14.748Z,1000.33
2017-12-29T08:17:14.738Z,1000.33
2017-12-29T08:18:14.764Z,1000.39
2017-12-29T08:19:15.075Z,1000.41
2017-12-29T08:20:14.795Z,1000.42
2017-12-29T08:21:14.797Z,1000.43
2017-12-29T08:22:14.796Z,1000.43
2017-12-29T08:23:14.821Z,1000.49
2017-12-29T08:24:14.826Z,1000.50
2017-12-29T08:25:14.835Z,1000.51
2017-12-29T08:26:14.850Z,1000.50
2017-12-29T08:27:14.868Z,1000.53
2017-12-29T08:28:14.879Z,1000.59
2017-12-29T08:29:14.888Z,1000.54
2017-12-29T08:30:14.893Z,1000.52
2017-12-29T08:31:14.912Z,1000.56
2017-12-29T08:32:14.929Z,1000.56
2017-12-29T08:33:14.934Z,1000.53
2017-12-29T08:34:14.951Z,1000.56
2017-12-29T08:35:14.961Z,1000.60
2017-12-29T08:36:14.975Z,1000.61
2017-12-29T08:37:14.984Z,1000.59
2017-12-29T08:38:14.988Z,1000.61
2017-12-29T08:39:15.307Z,1000.65
2017-12-29T08:40:15.025Z,1000.65
2017-12-29T08:41:15.027Z,1000.68
2017-12-29T08:42:15.041Z,1000.66
2017-12-29T08:43:15.052Z,1000.68
2017-12-29T08:44:15.071Z,1000.73
2017-12-29T08:45:15.080Z,1000.70
2017-12-29T08:46:15.085Z,1000.72
2017-12-29T08:47:15.109Z,1000.75
2017-12-29T08:48:15.122Z,1000.79
2017-12-29T08:49:15.124Z,1000.80
2017-12-29T08:50:15.141Z,1000.82
2017-12-29T08:51:15.148Z,1000.80
2017-12-29T08:52:15.167Z,1000.82
2017-12-29T08:53:15.176Z,1000.86
2017-12-29T08:54:15.187Z,1000.87
2017-12-29T08:55:15.199Z,1000.83
2017-12-29T08:56:15.201Z,1000.86
2017-12-29T08:57:15.222Z,1000.90
2017-12-29T08:58:15.240Z,1000.95
2017-12-29T08:59:15.244Z,1000.89
2017-12-29T09:00:15.269Z,1000.87
2017-12-29T09:01:15.279Z,1000.94
2017-12-29T09:02:15.278Z,1000.92
2017-12-29T09:03:15.290Z,1000.92
2017-12-29T09:04:15.307Z,1000.91
2017-12-29T09:05:15.323Z,1000.97
2017-12-29T09:06:15.338Z,1000.98
2017-12-29T09:07:15.333Z,1000.99
2017-12-29T09:08:15.359Z,1001.00
2017-12-29T09:09:15.368Z,1000.99
2017-12-29T09:10:15.372Z,1001.01
2017-12-29T09:11:15.399Z,1001.07
2017-12-29T09:12:15.416Z,1000.99
2017-12-29T09:13:15.412Z,1001.01
2017-12-29T09:14:15.425Z,1001.00
2017-12-29T09:15:15.433Z,1001.04
2017-12-29T09:16:15.462Z,1001.00
2017-12-29T09:17:15.471Z,1000.98
2017-12-29T09:18:15.469Z,1001.03
2017-12-29T09:19:15.495Z,1001.01
2017-12-29T09:20:15.502Z,1000.97
2017-12-29T09:21:15.509Z,1001.00
2017-12-29T09:22:15.522Z,1001.00
2017-12-29T09:23:15.545Z,1001.02
2017-12-29T09:24:15.552Z,1000.97
2017-12-29T09:25:15.560Z,1000.97
2017-12-29T09:26:15.578Z,1000.97
2017-12-29T09:27:15.596Z,1001.06
2017-12-29T09:28:15.602Z,1001.03
2017-12-29T09:29:15.622Z,1001.02
2017-12-29T09:30:15.630Z,1001.00
2017-12-29T09:31:15.634Z,1001.03
2017-12-29T09:32:15.649Z,1001.05
2017-12-29T09:33:15.687Z,1001.04
2017-12-29T09:34:15.680Z,1001.01
2017-12-29T09:35:15.686Z,1000.98
2017-12-29T09:36:15.703Z,1000.96
2017-12-29T09:37:15.712Z,1000.99
2017-12-29T09:38:15.732Z,1001.00
2017-12-29T09:39:15.730Z,1001.01
2017-12-29T09:40:15.756Z,1001.05
2017-12-29T09:41:15.765Z,1001.01
2017-12-29T09:42:15.771Z,1001.04
2017-12-29T09:43:15.800Z,1001.05
2017-12-29T09:44:15.805Z,1001.06
2017-12-29T09:45:15.816Z,1001.05
2017-12-29T09:46:15.829Z,1001.04
2017-12-29T09:47:15.846Z,1001.06
2017-12-29T09:48:15.910Z,1001.04
2017-12-29T09:49:15.867Z,1000.99
2017-12-29T09:50:15.881Z,1000.95
2017-12-29T09:51:15.897Z,1001.00
2017-12-29T09:52:15.903Z,1001.02
2017-12-29T09:53:15.918Z,1001.02
2017-12-29T09:54:15.932Z,1000.98
2017-12-29T09:55:15.942Z,1000.99
2017-12-29T09:56:15.962Z,1000.97
2017-12-29T09:57:15.975Z,1000.94
2017-12-29T09:58:15.974Z,1000.94
2017-12-29T09:59:16.294Z,1000.93
2017-12-29T10:00:16.005Z,1000.97
2017-12-29T10:01:16.013Z,1000.96
2017-12-29T10:02:16.053Z,1000.99
2017-12-29T10:03:16.050Z,1000.96
2017-12-29T10:04:16.063Z,1000.96
2017-12-29T10:05:16.066Z,1000.92
2017-12-29T10:06:16.083Z,1000.96
2017-12-29T10:07:16.104Z,1000.88
2017-12-29T10:08:16.106Z,1000.88
2017-12-29T10:09:16.130Z,1000.92
2017-12-29T10:10:16.154Z,1000.92
2017-12-29T10:11:16.146Z,1000.95
2017-12-29T10:12:16.166Z,1000.99
2017-12-29T10:13:16.182Z,1000.97
2017-12-29T10:14:16.179Z,1000.96
2017-12-29T10:15:16.212Z,1000.97
2017-12-29T10:16:16.209Z,1000.97
2017-12-29T10:17:16.219Z,1001.00
2017-12-29T10:18:16.233Z,1000.94
2017-12-29T10:19:16.561Z,1000.94
2017-12-29T10:20:16.258Z,1000.93
2017-12-29T10:21:16.271Z,1000.86
2017-12-29T10:22:16.291Z,1000.92
2017-12-29T10:23:16.304Z,1000.85
2017-12-29T10:24:16.323Z,1000.85
2017-12-29T10:25:16.338Z,1000.86
2017-12-29T10:26:16.337Z,1000.91
2017-12-29T10:27:16.368Z,1000.86
2017-12-29T10:28:16.374Z,1000.84
2017-12-29T10:29:16.374Z,1000.84
2017-12-29T10:30:16.403Z,1000.87
2017-12-29T10:31:16.411Z,1000.88
2017-12-29T10:32:16.419Z,1000.84
2017-12-29T10:33:16.441Z,1000.86
2017-12-29T10:34:16.451Z,1000.86
2017-12-29T10:35:16.465Z,1000.84
2017-12-29T10:36:16.495Z,1000.81
2017-12-29T10:37:16.490Z,1000.79
2017-12-29T10:38:16.504Z,1000.84
2017-12-29T10:39:16.520Z,1000.82
2017-12-29T10:40:16.527Z,1000.78
2017-12-29T10:41:16.543Z,1000.75
2017-12-29T10:42:16.553Z,1000.74
2017-12-29T10:43:16.573Z,1000.78
2017-12-29T10:44:16.589Z,1000.76
2017-12-29T10:45:16.593Z,1000.75
2017-12-29T10:46:16.618Z,1000.79
2017-12-29T10:47:16.623Z,1000.74
2017-12-29T10:48:16.636Z,1000.74
2017-12-29T10:49:16.644Z,1000.77
2017-12-29T10:50:16.668Z,1000.74
2017-12-29T10:51:16.681Z,1000.75
2017-12-29T10:52:16.681Z,1000.78
2017-12-29T10:53:16.701Z,1000.81
2017-12-29T10:54:16.714Z,1000.82
2017-12-29T10:55:16.734Z,1000.86
2017-12-29T10:56:16.745Z,1000.88
2017-12-29T10:57:16.754Z,1000.79
2017-12-29T10:58:16.770Z,1000.79
2017-12-29T10:59:17.083Z,1000.79
2017-12-29T11:00:16.800Z,1000.75
2017-12-29T11:01:16.815Z,1000.76
2017-12-29T11:02:16.823Z,1000.77
2017-12-29T11:03:16.839Z,1000.75
2017-12-29T11:04:16.860Z,1000.74
2017-12-29T11:05:16.869Z,1000.72
2017-12-29T11:06:16.879Z,1000.74
2017-12-29T11:07:16.900Z,1000.67
2017-12-29T11:08:16.910Z,1000.67
2017-12-29T11:09:16.935Z,1000.66
2017-12-29T11:10:16.943Z,1000.72
2017-12-29T11:11:16.955Z,1000.67
2017-12-29T11:12:16.962Z,1000.69
2017-12-29T11:13:16.996Z,1000.69
2017-12-29T11:14:16.994Z,1000.67
2017-12-29T11:15:17.013Z,1000.70
2017-12-29T11:16:17.025Z,1000.69
2017-12-29T11:17:17.034Z,1000.72
2017-12-29T11:18:17.052Z,1000.71
2017-12-29T11:19:17.056Z,1000.65
2017-12-29T11:20:17.096Z,1000.66
2017-12-29T11:21:17.092Z,1000.62
2017-12-29T11:22:17.109Z,1000.61
2017-12-29T11:23:17.121Z,1000.57
2017-12-29T11:24:17.138Z,1000.51
2017-12-29T11:25:17.149Z,1000.50
2017-12-29T11:26:17.168Z,1000.41
2017-12-29T11:27:17.184Z,1000.42
2017-12-29T11:28:17.192Z,1000.42
2017-12-29T11:29:17.213Z,1000.36
2017-12-29T11:30:17.218Z,1000.35
2017-12-29T11:31:17.248Z,1000.31
2017-12-29T11:32:17.254Z,1000.27
2017-12-29T11:33:17.258Z,1000.30
2017-12-29T11:34:17.282Z,1000.28
2017-12-29T11:35:17.294Z,1000.28
2017-12-29T11:36:17.312Z,1000.27
2017-12-29T11:37:17.322Z,1000.23
2017-12-29T11:38:17.339Z,1000.19
2017-12-29T11:39:17.658Z,1000.22
2017-12-29T11:40:17.369Z,1000.22
2017-12-29T11:41:17.377Z,1000.21
2017-12-29T11:42:17.391Z,1000.17
2017-12-29T11:43:17.408Z,1000.16
2017-12-29T11:44:17.420Z,1000.17
2017-12-29T11:45:17.443Z,1000.19
2017-12-29T11:46:17.448Z,1000.18
2017-12-29T11:47:17.473Z,1000.19
2017-12-29T11:48:17.477Z,1000.22
2017-12-29T11:49:17.492Z,1000.19
2017-12-29T11:50:17.514Z,1000.21
2017-12-29T11:51:17.524Z,1000.17
2017-12-29T11:52:17.574Z,1000.12
2017-12-29T11:53:17.551Z,1000.19
2017-12-29T11:54:17.556Z,1000.20
2017-12-29T11:55:17.582Z,1000.18
2017-12-29T11:56:17.593Z,1000.17
2017-12-29T11:57:17.607Z,1000.12
2017-12-29T11:58:17.620Z,1000.12
2017-12-29T11:59:17.977Z,1000.11
2017-12-29T12:00:17.651Z,1000.11
2017-12-29T12:01:17.660Z,1000.14
2017-12-29T12:02:17.697Z,1000.05
2017-12-29T12:03:17.690Z,1000.05
2017-12-29T12:04:17.702Z,1000.06
2017-12-29T12:05:17.724Z,1000.10
2017-12-29T12:06:17.730Z,1000.11
2017-12-29T12:07:17.748Z,1000.06
2017-12-29T12:08:17.759Z,1000.07
2017-12-29T12:09:17.775Z,1000.04
2017-12-29T12:10:17.786Z,1000.03
2017-12-29T12:11:17.798Z,1000.08
2017-12-29T12:12:17.824Z,999.98
2017-12-29T12:13:17.824Z,1000.00
2017-12-29T12:14:17.837Z,999.99
2017-12-29T12:15:17.862Z,1000.06
2017-12-29T12:16:17.869Z,999.99
2017-12-29T12:17:17.878Z,1000.03
2017-12-29T12:18:17.901Z,1000.07
2017-12-29T12:19:18.207Z,1000.03
2017-12-29T12:20:17.933Z,1000.04